Have a Safe July 4th! 

Flight Track Log - Related Links

Times and Time Zones

All times are in EST time to prevent confusion due to time zone crossing. See the EJA385 flight status page for this flight to view local times or setup timezone preferences in your user account.

Time Position Orientation Groundspeed Altitude Reporting Facility
EST Latitude Longitude Course Direction KTS MPH feet Rate Location/Type
Sat 09:34:24 AM 39.8500 -85.8833 194° South 175 201 1,400  Level Indianapolis TRACON
Sat 09:35:36 AM 39.8000 -85.9000 218° Southwest 202 232 3,000 2,000 Climbing Indianapolis TRACON
Sat 09:36:36 AM 39.7500 -85.9500 265° West 228 262 5,800 3,044 Climbing Indianapolis TRACON
Sat 09:37:52 AM 39.7428 -86.0681 267° West 259 298 9,900 3,265 Climbing Indianapolis Center
Sat 09:38:52 AM 39.7386 -86.1733 268° West 282 325 13,200 3,250 Climbing Indianapolis Center
Sat 09:39:52 AM 39.7358 -86.2892 266° West 299 344 16,400 2,900 Climbing Indianapolis Center
Sat 09:40:52 AM 39.7292 -86.3997 266° West 334 384 19,000 2,350 Climbing Indianapolis Center
Sat 09:41:52 AM 39.7219 -86.5264 266° West 334 384 21,100 1,800 Climbing Indianapolis Center
Sat 09:42:52 AM 39.7142 -86.6608 267° West 356 410 22,600 1,600 Climbing Indianapolis Center
Sat 09:43:52 AM 39.7086 -86.7956 266° West 377 434 24,300 1,500 Climbing Indianapolis Center
Sat 09:44:52 AM 39.7003 -86.9411 266° West 390 449 25,600 1,300 Climbing Indianapolis Center
Sat 09:45:52 AM 39.6917 -87.0889 266° West 405 466 26,900 1,200 Climbing Indianapolis Center
Sat 09:46:52 AM 39.6831 -87.2369 267° West 410 472 28,000 1,050 Climbing Indianapolis Center
Sat 09:47:52 AM 39.6761 -87.3931 266° West 422 486 29,000 957 Climbing Indianapolis Center
Sat 09:49:35 AM 39.6639 -87.6467 266° West 434 499 30,600 957 Climbing Kansas City Center
Sat 09:50:35 AM 39.6561 -87.8039 265° West 439 505 31,600 1,000 Climbing Kansas City Center
Sat 09:51:35 AM 39.6458 -87.9614 265° West 444 511 32,600 1,000 Climbing Kansas City Center
Sat 09:52:35 AM 39.6356 -88.1158 266° West 444 511 33,600 1,000 Climbing Kansas City Center
Sat 09:53:35 AM 39.6269 -88.2703 264° West 444 511 34,600 1,000 Climbing Kansas City Center
Sat 09:54:35 AM 39.6142 -88.4250 263° West 449 517 35,600 1,050 Climbing Kansas City Center
Sat 09:55:35 AM 39.5975 -88.5908 262° West 444 511 36,700 1,050 Climbing Kansas City Center
Sat 09:56:35 AM 39.5819 -88.7428 262° West 430 495 37,700 1,000 Climbing Kansas City Center
Sat 09:57:35 AM 39.5661 -88.8922 264° West 430 495 38,700 1,000 Climbing Kansas City Center
Sat 09:58:35 AM 39.5539 -89.0333 263° West 422 486 39,700 650 Climbing Kansas City Center
Sat 09:59:35 AM 39.5397 -89.1797 262° West 416 479 40,000 150 Climbing Kansas City Center
Sat 10:00:35 AM 39.5233 -89.3289 264° West 415 478 40,000  Level Kansas City Center
Sat 10:01:35 AM 39.5122 -89.4589 262° West 415 478 40,000  Level Kansas City Center
Sat 10:02:35 AM 39.4956 -89.6108 263° West 420 483 40,000  Level Kansas City Center
Sat 10:03:35 AM 39.4808 -89.7622 262° West 426 490 40,000  Level Kansas City Center
Sat 10:04:35 AM 39.4636 -89.9114 264° West 426 490 40,000  Level Kansas City Center
Sat 10:05:35 AM 39.4511 -90.0761 261° West 426 490 40,000  Level Kansas City Center
Sat 10:06:35 AM 39.4353 -90.2117 261° West 432 497 40,000  Level Kansas City Center
Sat 10:07:35 AM 39.4139 -90.3767 262° West 426 490 40,000  Level Kansas City Center
Sat 10:08:35 AM 39.3981 -90.5281 262° West 431 496 40,000  Level Kansas City Center
Sat 10:09:35 AM 39.3803 -90.6822 262° West 431 496 40,000  Level Kansas City Center
Sat 10:10:35 AM 39.3642 -90.8333 262° West 431 496 40,000  Level Kansas City Center
Sat 10:11:35 AM 39.3478 -90.9817 262° West 431 496 40,000  Level Kansas City Center
Sat 10:12:35 AM 39.3311 -91.1303 261° West 426 490 40,000  Level Kansas City Center
Sat 10:13:35 AM 39.3125 -91.2814 262° West 435 501 40,000  Level Kansas City Center
Sat 10:14:35 AM 39.2972 -91.4161 261° West 430 495 40,000  Level Kansas City Center
Sat 10:15:35 AM 39.2800 -91.5617 261° West 425 489 40,000  Level Kansas City Center
Sat 10:16:35 AM 39.2608 -91.7181 262° West 432 497 40,000  Level Kansas City Center
Sat 10:17:35 AM 39.2436 -91.8742 261° West 432 497 40,000  Level Kansas City Center
Sat 10:18:35 AM 39.2258 -92.0222 261° West 424 488 40,000  Level Kansas City Center
Sat 10:19:35 AM 39.2081 -92.1728 260° West 424 488 40,000  Level Kansas City Center
Sat 10:20:35 AM 39.1881 -92.3206 259° West 430 495 40,000  Level Kansas City Center
Sat 10:21:35 AM 39.1675 -92.4578 261° West 436 502 40,000  Level Kansas City Center
Sat 10:22:35 AM 39.1492 -92.6108 261° West 436 502 40,000  Level Kansas City Center
Sat 10:23:35 AM 39.1306 -92.7586 261° West 426 490 40,000  Level Kansas City Center
Sat 10:24:35 AM 39.1117 -92.9061 259° West 426 490 40,000  Level Kansas City Center
Sat 10:25:35 AM 39.0906 -93.0511 260° West 426 490 40,000  Level Kansas City Center
Sat 10:26:35 AM 39.0694 -93.1986 261° West 426 490 40,000  Level Kansas City Center
Sat 10:27:35 AM 39.0522 -93.3458 259° West 431 496 40,000  Level Kansas City Center
Sat 10:28:35 AM 39.0267 -93.5119 259° West 426 490 40,000  Level Kansas City Center
Sat 10:29:35 AM 39.0047 -93.6592 261° West 426 490 40,000  Level Kansas City Center
Sat 10:30:35 AM 38.9869 -93.7956 260° West 432 497 40,000  Level Kansas City Center
Sat 10:31:35 AM 38.9650 -93.9586 259° West 432 497 40,000  Level Kansas City Center
Sat 10:32:35 AM 38.9425 -94.1111 260° West 432 497 40,000  Level Kansas City Center
Sat 10:33:35 AM 38.9222 -94.2553 259° West 432 497 40,000  Level Kansas City Center
Sat 10:34:35 AM 38.9014 -94.3914 261° West 432 497 40,000  Level Kansas City Center
Sat 10:35:35 AM 38.8806 -94.5539 258° West 427 491 40,000  Level Kansas City Center
Sat 10:36:35 AM 38.8556 -94.7033 260° West 427 491 40,000  Level Kansas City Center
Sat 10:37:35 AM 38.8344 -94.8497 258° West 427 491 40,000  Level Kansas City Center
Sat 10:38:35 AM 38.8131 -94.9828 259° West 427 491 40,000  Level Kansas City Center
Sat 10:39:35 AM 38.7914 -95.1267 260° West 427 491 40,000  Level Kansas City Center
Sat 10:40:35 AM 38.7697 -95.2836 258° West 427 491 40,000  Level Kansas City Center
Sat 10:41:35 AM 38.7458 -95.4269 259° West 427 491 40,000  Level Kansas City Center
Sat 10:42:35 AM 38.7258 -95.5597 259° West 422 486 40,000  Level Kansas City Center
Sat 10:43:35 AM 38.7036 -95.7031 260° West 422 486 40,000  Level Kansas City Center
Sat 10:44:35 AM 38.6814 -95.8569 259° West 411 473 40,000  Level Kansas City Center
Sat 10:45:35 AM 38.6586 -96.0028 259° West 416 479 40,000  Level Kansas City Center
Sat 10:46:35 AM 38.6358 -96.1458 258° West 416 479 40,000  Level Kansas City Center
Sat 10:47:35 AM 38.6133 -96.2756 259° West 411 473 40,000  Level Kansas City Center
Sat 10:48:35 AM 38.5903 -96.4211 258° West 416 479 40,000  Level Kansas City Center
Sat 10:49:35 AM 38.5669 -96.5667 257° West 423 487 40,000 450 Level Kansas City Center
Sat 10:50:35 AM 38.5389 -96.7278 258° West 423 487 40,900 850 Climbing Kansas City Center
Sat 10:51:35 AM 38.5178 -96.8544 258° West 428 493 41,700 900 Climbing Kansas City Center
Sat 10:52:35 AM 38.4939 -97.0022 258° West 409 471 42,700 650 Climbing Kansas City Center
Sat 10:53:35 AM 38.4722 -97.1369 257° West 397 457 43,000 150 Climbing Kansas City Center
Sat 10:54:35 AM 38.4483 -97.2739 257° West 392 451 43,000  Level Kansas City Center
Sat 10:55:35 AM 38.4267 -97.3975 258° West 392 451 43,000  Level Kansas City Center
Sat 10:56:35 AM 38.4025 -97.5369 258° West 392 451 43,000  Level Kansas City Center
Sat 10:57:35 AM 38.3800 -97.6767 256° West 397 457 43,000  Level Kansas City Center
Sat 10:58:35 AM 38.3533 -97.8158 258° West 403 464 43,000  Level Kansas City Center
Sat 10:59:35 AM 38.3283 -97.9603 258° West 414 476 43,000  Level Kansas City Center
Sat 11:00:35 AM 38.3056 -98.0994 256° West 414 476 43,000  Level Kansas City Center
Sat 11:01:35 AM 38.2781 -98.2408 257° West 414 476 43,000  Level Kansas City Center
Sat 11:02:35 AM 38.2528 -98.3825 257° West 414 476 43,000  Level Kansas City Center
Sat 11:03:35 AM 38.2275 -98.5214 257° West 414 476 43,000  Level Kansas City Center
Sat 11:04:35 AM 38.2017 -98.6600 256° West 414 476 43,000  Level Kansas City Center
Sat 11:05:35 AM 38.1739 -98.8011 257° West 414 476 43,000  Level Kansas City Center
Sat 11:06:35 AM 38.1481 -98.9394 257° West 414 476 43,000  Level Kansas City Center
Sat 11:07:35 AM 38.1219 -99.0778 256° West 414 476 43,000  Level Kansas City Center
Sat 11:08:35 AM 38.0958 -99.2136 256° West 409 471 43,000  Level Kansas City Center
Sat 11:09:35 AM 38.0694 -99.3517 256° West 409 471 43,000  Level Kansas City Center
Sat 11:10:35 AM 38.0406 -99.4947 256° West 402 463 43,000  Level Kansas City Center
Sat 11:11:35 AM 38.0139 -99.6328 256° West 397 457 43,000  Level Kansas City Center
Sat 11:12:35 AM 37.9869 -99.7681 257° West 397 457 43,000  Level Kansas City Center
Sat 11:13:35 AM 37.9647 -99.8928 256° West 402 463 43,000  Level Kansas City Center
Sat 11:14:35 AM 37.9350 -100.0433 256° West 408 470 43,000  Level Kansas City Center
Sat 11:15:35 AM 37.9078 -100.1783 256° West 408 470 43,000  Level Kansas City Center
Sat 11:16:35 AM 37.8831 -100.3028 256° West 408 470 43,000  Level Kansas City Center
Sat 11:17:35 AM 37.8556 -100.4375 256° West 408 470 43,000  Level Kansas City Center
Sat 11:18:35 AM 37.8272 -100.5853 257° West 408 470 43,000  Level Kansas City Center
Sat 11:19:35 AM 37.8014 -100.7222 254° West 408 470 43,000  Level Kansas City Center
Sat 11:20:35 AM 37.7739 -100.8461 254° West 416 479 43,000  Level Kansas City Center
Sat 11:21:35 AM 37.7408 -100.9958 256° West 405 466 43,000  Level Kansas City Center
Sat 11:22:35 AM 37.7122 -101.1353 255° West 412 474 43,000  Level Kansas City Center
Sat 11:23:35 AM 37.6867 -101.2561 255° West 407 468 43,000  Level Kansas City Center
Sat 11:24:35 AM 37.6553 -101.4031 255° West 407 468 43,000  Level Kansas City Center
Sat 11:26:29 AM 37.6000 -101.6606 256° West 407 468 43,000  Level Albuquerque Center
Sat 11:27:29 AM 37.5731 -101.7936 254° West 407 468 43,000  Level Albuquerque Center
Sat 11:28:29 AM 37.5417 -101.9294 255° West 407 468 43,000  Level Albuquerque Center
Sat 11:29:29 AM 37.5158 -102.0517 254° West 407 468 43,000  Level Albuquerque Center
Sat 11:30:29 AM 37.4828 -102.2006 255° West 402 463 43,000  Level Albuquerque Center
Sat 11:31:29 AM 37.4531 -102.3358 254° West 402 463 43,000  Level Albuquerque Center
Sat 11:32:29 AM 37.4231 -102.4686 255° West 407 468 43,000  Level Albuquerque Center
Sat 11:33:29 AM 37.3950 -102.6039 254° West 401 461 43,000  Level Albuquerque Center
Sat 11:34:29 AM 37.3650 -102.7389 254° West 401 461 43,000  Level Albuquerque Center
Sat 11:35:29 AM 37.3344 -102.8714 255° West 406 467 43,000  Level Albuquerque Center
Sat 11:38:42 AM 37.2378 -103.3089 254° West 405 466 43,000  Level Denver Center
Sat 11:39:42 AM 37.2081 -103.4353 254° West 405 466 43,000  Level Denver Center
Sat 11:40:42 AM 37.1744 -103.5850 252° West 405 466 43,000  Level Denver Center
Sat 11:41:42 AM 37.1403 -103.7192 255° West 405 466 43,000  Level Denver Center
Sat 11:42:42 AM 37.1100 -103.8581 253° West 405 466 43,000  Level Denver Center
Sat 11:43:42 AM 37.0794 -103.9842 253° West 410 472 43,000  Level Denver Center
Sat 11:44:42 AM 37.0469 -104.1203 253° West 410 472 43,000  Level Denver Center
Sat 11:45:42 AM 37.0106 -104.2722 253° West 410 472 43,000  Level Denver Center
Sat 11:46:42 AM 36.9756 -104.4111 254° West 417 480 43,000  Level Denver Center
Sat 11:47:42 AM 36.9447 -104.5494 253° West 422 486 43,000  Level Denver Center
Sat 11:48:42 AM 36.9133 -104.6747 254° West 422 486 43,000  Level Denver Center
Sat 11:49:42 AM 36.8781 -104.8233 253° West 422 486 43,000  Level Denver Center
Sat 11:51:05 AM 36.8342 -105.0050 253° West 418 481 43,000  Level Albuquerque Center
Sat 11:52:05 AM 36.7953 -105.1592 253° West 423 487 43,000  Level Albuquerque Center
Sat 11:53:05 AM 36.7603 -105.2978 254° West 428 493 43,000  Level Albuquerque Center
Sat 11:54:05 AM 36.7272 -105.4383 250° West 428 493 43,000  Level Albuquerque Center
Sat 11:55:05 AM 36.6914 -105.5586 251° West 428 493 43,000  Level Albuquerque Center
Sat 11:56:05 AM 36.6539 -105.6967 254° West 428 493 43,000  Level Albuquerque Center
Sat 11:57:05 AM 36.6161 -105.8553 252° West 433 498 43,000  Level Albuquerque Center
Sat 11:58:05 AM 36.5783 -105.9983 253° West 444 511 43,000  Level Albuquerque Center
Sat 11:59:05 AM 36.5442 -106.1358 251° West 436 502 43,000  Level Albuquerque Center
Sat 12:00:05 PM 36.5081 -106.2656 254° West 431 496 43,000  Level Albuquerque Center
Sat 12:01:05 PM 36.4717 -106.4186 251° West 426 490 43,000  Level Albuquerque Center
Sat 12:02:05 PM 36.4331 -106.5608 252° West 436 502 43,000  Level Albuquerque Center
Sat 12:03:05 PM 36.3964 -106.7006 253° West 436 502 43,000  Level Albuquerque Center
Sat 12:04:05 PM 36.3636 -106.8300 252° West 436 502 43,000  Level Albuquerque Center
Sat 12:05:05 PM 36.3225 -106.9822 251° West 436 502 43,000  Level Albuquerque Center
Sat 12:06:05 PM 36.2833 -107.1242 251° West 436 502 43,000  Level Albuquerque Center
Sat 12:07:05 PM 36.2458 -107.2608 252° West 436 502 43,000  Level Albuquerque Center
Sat 12:08:05 PM 36.2125 -107.3869 252° West 436 502 43,000  Level Albuquerque Center
Sat 12:09:05 PM 36.1728 -107.5414 251° West 436 502 43,000  Level Albuquerque Center
Sat 12:10:05 PM 36.1328 -107.6828 251° West 436 502 43,000  Level Albuquerque Center
Sat 12:11:05 PM 36.0947 -107.8214 252° West 431 496 43,000  Level Albuquerque Center
Sat 12:12:05 PM 36.0608 -107.9469 251° West 431 496 43,000  Level Albuquerque Center
Sat 12:13:05 PM 36.0183 -108.1008 251° West 431 496 43,000  Level Albuquerque Center
Sat 12:14:05 PM 35.9797 -108.2417 250° West 431 496 43,000  Level Albuquerque Center
Sat 12:15:05 PM 35.9392 -108.3797 253° West 431 496 43,000  Level Albuquerque Center
Sat 12:16:05 PM 35.9067 -108.5075 249° West 431 496 43,000  Level Albuquerque Center
Sat 12:17:05 PM 35.8633 -108.6453 252° West 436 502 43,000  Level Albuquerque Center
Sat 12:18:05 PM 35.8219 -108.8008 250° West 441 507 43,000  Level Albuquerque Center
Sat 12:19:05 PM 35.7806 -108.9408 251° West 441 507 43,000  Level Albuquerque Center
Sat 12:20:05 PM 35.7411 -109.0836 251° West 441 507 43,000  Level Albuquerque Center
Sat 12:21:05 PM 35.7058 -109.2081 250° West 441 507 43,000  Level Albuquerque Center
Sat 12:22:05 PM 35.6594 -109.3628 251° West 441 507 43,000  Level Albuquerque Center
Sat 12:23:05 PM 35.6194 -109.5025 250° West 441 507 43,000  Level Albuquerque Center
Sat 12:24:05 PM 35.5772 -109.6417 252° West 441 507 43,000  Level Albuquerque Center
Sat 12:25:05 PM 35.5436 -109.7658 250° West 441 507 43,000  Level Albuquerque Center
Sat 12:26:05 PM 35.4986 -109.9175 252° West 441 507 43,000  Level Albuquerque Center
Sat 12:27:05 PM 35.4603 -110.0592 252° West 441 507 43,000  Level Albuquerque Center
Sat 12:28:05 PM 35.4236 -110.1956 252° West 441 507 43,000  Level Albuquerque Center
Sat 12:29:05 PM 35.3892 -110.3219 252° West 441 507 43,000  Level Albuquerque Center
Sat 12:30:05 PM 35.3478 -110.4756 251° West 436 502 43,000  Level Albuquerque Center
Sat 12:31:05 PM 35.3086 -110.6117 252° West 436 502 43,000  Level Albuquerque Center
Sat 12:32:05 PM 35.2714 -110.7500 252° West 436 502 43,000  Level Albuquerque Center
Sat 12:33:05 PM 35.2386 -110.8758 251° West 436 502 43,000  Level Albuquerque Center
Sat 12:34:05 PM 35.1944 -111.0314 251° West 436 502 43,000  Level Albuquerque Center
Sat 12:35:05 PM 35.1592 -111.1542 251° West 436 502 43,000  Level Albuquerque Center
Sat 12:36:05 PM 35.1192 -111.2947 250° West 441 507 43,000  Level Albuquerque Center
Sat 12:37:05 PM 35.0792 -111.4322 251° West 436 502 43,000  Level Albuquerque Center
Sat 12:38:05 PM 35.0411 -111.5675 252° West 436 502 43,000  Level Albuquerque Center
Sat 12:39:05 PM 35.0025 -111.7100 249° West 441 507 43,000  Level Albuquerque Center
Sat 12:40:05 PM 34.9625 -111.8369 251° West 426 490 43,000  Level Albuquerque Center
Sat 12:41:05 PM 34.9239 -111.9742 250° West 421 484 43,000  Level Albuquerque Center
Sat 12:42:05 PM 34.8853 -112.1061 251° West 421 484 43,000  Level Albuquerque Center
Sat 12:43:05 PM 34.8464 -112.2406 251° West 421 484 43,000  Level Albuquerque Center
Sat 12:44:05 PM 34.8075 -112.3750 250° West 421 484 43,000  Level Albuquerque Center
Sat 12:45:05 PM 34.7686 -112.5064 250° West 421 484 43,000  Level Albuquerque Center
Sat 12:46:05 PM 34.7272 -112.6428 250° West 421 484 43,000  Level Albuquerque Center
Sat 12:47:05 PM 34.6878 -112.7767 250° West 421 484 43,000 -450 Level Albuquerque Center
Sat 12:48:05 PM 34.6483 -112.9078 250° West 421 484 42,100 -1,100 Descending Albuquerque Center
Sat 12:49:05 PM 34.6061 -113.0489 258° West 426 490 40,800 -1,400 Descending Albuquerque Center
Sat 12:50:05 PM 34.5808 -113.1883 269° West 426 490 39,300 -1,500 Descending Albuquerque Center
Sat 12:51:05 PM 34.5778 -113.3319 249° West 426 490 37,800 -1,286 Descending Albuquerque Center
Sat 12:53:07 PM 34.4878 -113.6161 246° West 449 517 35,400 -1,121 Descending Los Angeles Center
Sat 12:54:07 PM 34.4383 -113.7536 246° West 455 524 34,400 -700 Descending Los Angeles Center
Sat 12:55:07 PM 34.3867 -113.8936 247° West 460 529 34,000 -250 Descending Los Angeles Center
Sat 12:56:07 PM 34.3331 -114.0483 245° Southwest 455 524 33,900 -550 Descending Los Angeles Center
Sat 12:57:07 PM 34.2792 -114.1906 247° West 460 529 32,900 -1,000 Descending Los Angeles Center
Sat 12:58:07 PM 34.2292 -114.3347 245° Southwest 466 536 31,900 -1,000 Descending Los Angeles Center
Sat 12:59:07 PM 34.1747 -114.4767 247° West 466 536 30,900 -900 Descending Los Angeles Center
Sat 01:00:07 PM 34.1244 -114.6181 244° Southwest 466 536 30,100 -450 Descending Los Angeles Center
Sat 01:01:07 PM 34.0675 -114.7569 242° Southwest 461 531 30,000 -50 Descending Los Angeles Center
Sat 01:02:07 PM 34.0064 -114.8958 242° Southwest 466 536 30,000  Level Los Angeles Center
Sat 01:03:07 PM 33.9450 -115.0344 243° Southwest 471 542 30,000 -50 Level Los Angeles Center
Sat 01:04:07 PM 33.8858 -115.1728 241° Southwest 471 542 29,900 -600 Descending Los Angeles Center
Sat 01:05:07 PM 33.8242 -115.3086 242° Southwest 471 542 28,800 -1,150 Descending Los Angeles Center
Sat 01:06:07 PM 33.7644 -115.4417 242° Southwest 471 542 27,600 -1,200 Descending Los Angeles Center
Sat 01:07:07 PM 33.7044 -115.5744 241° Southwest 466 536 26,400 -1,200 Descending Los Angeles Center
Sat 01:08:07 PM 33.6467 -115.7019 239° Southwest 449 517 25,200 -1,100 Descending Los Angeles Center
Sat 01:09:07 PM 33.5928 -115.8094 235° Southwest 423 487 24,200 -650 Descending Los Angeles Center
Sat 01:10:07 PM 33.5344 -115.9094 235° Southwest 391 450 23,900 -800 Descending Los Angeles Center
Sat 01:11:07 PM 33.4783 -116.0067 237° Southwest 377 434 22,600 -1,450 Descending Los Angeles Center
Sat 01:12:07 PM 33.4239 -116.1064 234° Southwest 372 428 21,000 -1,600 Descending Los Angeles Center
Sat 01:13:07 PM 33.3675 -116.1983 223° Southwest 359 413 19,400 -1,600 Descending Los Angeles Center
Sat 01:14:07 PM 33.3008 -116.2728 206° Southwest 352 405 17,800 -1,600 Descending Los Angeles Center
Sat 01:15:07 PM 33.2150 -116.3222 207° Southwest 336 387 16,200 -1,550 Descending Los Angeles Center
Sat 01:16:07 PM 33.1294 -116.3742 207° Southwest 341 392 14,700 -1,450 Descending Los Angeles Center
Sat 01:17:07 PM 33.0522 -116.4211 204° Southwest 335 386 13,300 -1,300 Descending Los Angeles Center
Sat 01:18:07 PM 32.9706 -116.4653 212° Southwest 322 371 12,100 -850 Descending Los Angeles Center
Sat 01:19:07 PM 32.9142 -116.5072 216° Southwest 317 365 11,600 -800 Descending Los Angeles Center
Sat 01:20:07 PM 32.8344 -116.5761 217° Southwest 323 372 10,500 -1,500 Descending Los Angeles Center
Sat 01:21:07 PM 32.7717 -116.6325 218° Southwest 306 352 8,600 -1,750 Descending Los Angeles Center
Sat 01:22:07 PM 32.7089 -116.6914 246° West 295 339 7,000 -1,350 Descending Los Angeles Center
Sat 01:23:07 PM 32.6792 -116.7725 251° West 269 310 5,900 -750 Descending Los Angeles Center
Sat 01:24:07 PM 32.6600 -116.8392 277° West 246 283 5,500 -496 Descending Los Angeles Center
Sat 01:25:08 PM 32.6667 -116.9000 292° West 172 198 4,900 -942 Descending Southern California TRACON
Sat 01:26:08 PM 32.6833 -116.9500 270° West 174 200 3,600 -1,200 Descending Southern California TRACON
Sat 01:27:08 PM 32.6833 -117.0167 292° West 170 196 2,500 -850 Descending Southern California TRACON
Sat 01:28:08 PM 32.7000 -117.0667 292° West 174 200 1,900 -600 Descending Southern California TRACON
Sat 01:29:08 PM 32.7167 -117.1167 286° West 140 161 1,300 -655 Descending Southern California TRACON
Sat 01:30:07 PM 32.7247 -117.1506 294° West 151 174 600 -605 Descending Los Angeles Center
Sat 01:31:07 PM 32.7369 -117.1828 294° West 135 155 100 -500 Descending Los Angeles Center

Login

Don't have an account? Register now (free) for customized features, flight alerts, and more!